Preview of NWS' New Version of Forecast
This preview is not operational and should not be used for support decisions.

Terminal Aerodrome Forecast (TAF)

Issued by National Weather Service (NWS)

                            
000
FTUS42 KCAE 242204 AAB
TAFOGB
TAF AMD
KOGB 242204Z 2422/2518 04008KT P6SM SCT015 BKN030
      TEMPO 2422/2423 5SM TSRA BKN015CB
     FM242300 04008G18KT P6SM BKN015
     FM250200 04008KT P6SM OVC007
     FM251600 04008KT P6SM OVC020=